Time;durP1;ratioP1;P1;durP2;ratioP2;P2;SDS_P1;SDS_P2;PMS_P1;PMS_P2;Temp;Humidity;BMP_temperature;BMP_pressure;BME280_temperature;BME280_humidity;BME280_pressure;Samples;Min_cycle;Max_cycle;Signal;HPM_P1;HPM_P2
2022/10/23 00:01:29;;;;;;;12.20;5.82;;;;;;;;;;5021524;28;20650;-76
2022/10/23 00:03:57;;;;;;;11.13;6.18;;;;;;;;;;5023490;28;20462;-76
2022/10/23 00:06:23;;;;;;;11.52;6.25;;;;;;;;;;5027326;28;20051;-76
2022/10/23 00:08:49;;;;;;;12.80;6.55;;;;;;;;;;5023555;28;20049;-76
2022/10/23 00:11:21;;;;;;;15.25;6.10;;;;;;;;;;5019525;28;20092;-76
2022/10/23 00:13:50;;;;;;;13.00;6.22;;;;;;;;;;5022389;28;20053;-76
2022/10/23 00:16:16;;;;;;;9.05;6.35;;;;;;;;;;5019128;28;20050;-76
2022/10/23 00:18:43;;;;;;;13.23;6.93;;;;;;;;;;5025238;28;20088;-76
2022/10/23 00:21:10;;;;;;;12.60;6.15;;;;;;;;;;5015537;28;20038;-76
2022/10/23 00:23:36;;;;;;;11.23;6.38;;;;;;;;;;5023608;28;20045;-76
2022/10/23 00:26:03;;;;;;;13.52;5.93;;;;;;;;;;5022619;28;20050;-76
2022/10/23 00:28:29;;;;;;;10.68;6.20;;;;;;;;;;5022926;28;20081;-76
2022/10/23 00:31:00;;;;;;;17.27;6.60;;;;;;;;;;5019494;28;20125;-76
2022/10/23 00:33:29;;;;;;;11.98;6.35;;;;;;;;;;5023112;28;20053;-76
2022/10/23 00:35:55;;;;;;;11.38;6.45;;;;;;;;;;5023751;28;20072;-76
2022/10/23 00:38:21;;;;;;;11.52;6.38;;;;;;;;;;5021549;28;20064;-76
2022/10/23 00:40:47;;;;;;;11.00;6.28;;;;;;;;;;5022786;28;20068;-76
2022/10/23 00:43:17;;;;;;;10.90;6.47;;;;;;;;;;5017980;28;20041;-75
2022/10/23 00:45:43;;;;;;;10.40;6.57;;;;;;;;;;5015942;28;20409;-75
2022/10/23 00:48:12;;;;;;;10.77;5.85;;;;;;;;;;5021512;28;20045;-75
2022/10/23 00:50:38;;;;;;;14.15;6.78;;;;;;;;;;5021530;28;20049;-75
2022/10/23 00:53:04;;;;;;;11.55;6.75;;;;;;;;;;5018372;28;20049;-75
2022/10/23 00:55:32;;;;;;;11.30;7.25;;;;;;;;;;5022519;28;20042;-75
2022/10/23 00:57:58;;;;;;;10.77;6.80;;;;;;;;;;5022555;28;20164;-75
2022/10/23 01:00:29;;;;;;;9.57;6.97;;;;;;;;;;5018129;28;20140;-75
2022/10/23 01:02:56;;;;;;;16.30;8.40;;;;;;;;;;5014325;28;20060;-75
2022/10/23 01:05:23;;;;;;;12.80;7.82;;;;;;;;;;5018958;28;20054;-75
2022/10/23 01:07:58;;;;;;;10.38;7.60;;;;;;;;;;5018280;28;20053;-75
2022/10/23 01:10:33;;;;;;;13.05;7.60;;;;;;;;;;5021387;28;20041;-75
2022/10/23 01:13:10;;;;;;;12.15;7.93;;;;;;;;;;5019053;28;20053;-75
2022/10/23 01:15:39;;;;;;;11.65;7.68;;;;;;;;;;5019604;28;20045;-75
2022/10/23 01:18:15;;;;;;;12.20;8.20;;;;;;;;;;5017846;28;20067;-75
2022/10/23 01:21:13;;;;;;;15.35;8.57;;;;;;;;;;5024317;28;20054;-75
2022/10/23 01:23:39;;;;;;;14.38;8.52;;;;;;;;;;4968076;28;20176;-75
2022/10/23 01:26:08;;;;;;;14.13;8.98;;;;;;;;;;5020675;28;20120;-75
2022/10/23 01:28:57;;;;;;;12.38;8.45;;;;;;;;;;5020601;28;20053;-75
2022/10/23 01:31:27;;;;;;;13.50;8.73;;;;;;;;;;5018738;28;20037;-75
2022/10/23 01:34:14;;;;;;;12.10;8.48;;;;;;;;;;5022245;28;20049;-75
2022/10/23 01:36:43;;;;;;;13.57;8.60;;;;;;;;;;5022076;28;20056;-75
2022/10/23 01:39:14;;;;;;;11.07;8.00;;;;;;;;;;5015906;28;20156;-75
2022/10/23 01:41:50;;;;;;;13.75;8.85;;;;;;;;;;5022884;28;20033;-75
2022/10/23 01:44:21;;;;;;;11.73;8.50;;;;;;;;;;5016867;28;20049;-75
2022/10/23 01:46:49;;;;;;;12.88;8.90;;;;;;;;;;5017390;28;20741;-75
2022/10/23 01:49:16;;;;;;;13.65;9.30;;;;;;;;;;5019256;28;20422;-75
2022/10/23 01:51:45;;;;;;;11.90;8.68;;;;;;;;;;5014450;28;20426;-75
2022/10/23 01:54:18;;;;;;;14.13;9.30;;;;;;;;;;5020936;28;20124;-75
2022/10/23 01:56:46;;;;;;;15.82;9.77;;;;;;;;;;5016398;28;20042;-74
2022/10/23 01:59:14;;;;;;;15.57;9.52;;;;;;;;;;5021662;28;20057;-75
2022/10/23 02:01:43;;;;;;;12.32;9.20;;;;;;;;;;5019307;28;20065;-74
2022/10/23 02:04:11;;;;;;;14.23;9.80;;;;;;;;;;5020032;28;20128;-75
2022/10/23 02:06:37;;;;;;;13.02;9.32;;;;;;;;;;5018535;28;20144;-74
2022/10/23 02:09:04;;;;;;;14.52;10.02;;;;;;;;;;5020324;28;20050;-75
2022/10/23 02:11:32;;;;;;;15.23;10.18;;;;;;;;;;5016869;28;20500;-75
2022/10/23 02:14:07;;;;;;;16.98;10.35;;;;;;;;;;5021721;28;20052;-75
2022/10/23 02:16:33;;;;;;;14.20;9.18;;;;;;;;;;5017843;28;20441;-75
2022/10/23 02:19:10;;;;;;;12.82;8.95;;;;;;;;;;5022180;28;20037;-75
2022/10/23 02:21:36;;;;;;;11.15;9.20;;;;;;;;;;5020543;28;20044;-75
2022/10/23 02:24:04;;;;;;;13.15;9.13;;;;;;;;;;5017517;28;20041;-74
2022/10/23 02:26:36;;;;;;;11.95;9.18;;;;;;;;;;5019295;28;20061;-74
2022/10/23 02:29:13;;;;;;;16.15;9.48;;;;;;;;;;5018338;28;20133;-75
2022/10/23 02:31:39;;;;;;;13.18;9.27;;;;;;;;;;5016642;28;20144;-74
2022/10/23 02:34:05;;;;;;;13.25;9.60;;;;;;;;;;5018323;28;20125;-74
2022/10/23 02:36:31;;;;;;;13.27;9.27;;;;;;;;;;5019050;28;20080;-74
2022/10/23 02:38:57;;;;;;;15.88;9.82;;;;;;;;;;5021407;28;20045;-75
2022/10/23 02:41:27;;;;;;;12.10;9.45;;;;;;;;;;5016154;28;20045;-75
2022/10/23 02:43:53;;;;;;;14.23;9.50;;;;;;;;;;5013617;28;20064;-75
2022/10/23 02:46:44;;;;;;;14.18;10.00;;;;;;;;;;5018159;28;20441;-75
2022/10/23 02:49:18;;;;;;;15.13;9.50;;;;;;;;;;5018384;28;20083;-75
2022/10/23 02:51:53;;;;;;;13.95;9.80;;;;;;;;;;5018082;28;20098;-75
2022/10/23 02:54:36;;;;;;;15.73;10.05;;;;;;;;;;5020921;28;20045;-75
2022/10/23 02:57:15;;;;;;;13.40;9.77;;;;;;;;;;5017355;28;20077;-74
2022/10/23 02:59:47;;;;;;;12.27;9.20;;;;;;;;;;5021034;28;20055;-75
2022/10/23 03:02:19;;;;;;;14.45;9.48;;;;;;;;;;5019690;28;20107;-74
2022/10/23 03:04:47;;;;;;;11.30;9.50;;;;;;;;;;5018583;28;20050;-74
2022/10/23 03:07:14;;;;;;;12.57;9.43;;;;;;;;;;5013923;28;20072;-74
2022/10/23 03:09:40;;;;;;;12.40;10.05;;;;;;;;;;5017095;28;20046;-74
2022/10/23 03:12:06;;;;;;;14.63;9.93;;;;;;;;;;5017318;28;20551;-74
2022/10/23 03:14:32;;;;;;;12.68;10.27;;;;;;;;;;5017438;28;20048;-75
2022/10/23 03:16:58;;;;;;;14.32;10.82;;;;;;;;;;5018742;28;20038;-75
2022/10/23 03:19:24;;;;;;;15.05;10.07;;;;;;;;;;5020468;28;20045;-74
2022/10/23 03:21:53;;;;;;;13.75;11.27;;;;;;;;;;5017623;28;20056;-75
2022/10/23 03:24:19;;;;;;;13.65;11.55;;;;;;;;;;5021109;28;20041;-74
2022/10/23 03:26:54;;;;;;;14.40;11.68;;;;;;;;;;5025167;28;20477;-74
2022/10/23 03:29:20;;;;;;;16.83;11.55;;;;;;;;;;5023313;28;20073;-75
2022/10/23 03:31:46;;;;;;;15.05;11.68;;;;;;;;;;5023556;28;20058;-75
2022/10/23 03:34:13;;;;;;;13.02;10.75;;;;;;;;;;5023274;28;20099;-74
2022/10/23 03:36:39;;;;;;;15.77;11.60;;;;;;;;;;5022503;28;20060;-74
2022/10/23 03:39:05;;;;;;;15.50;12.18;;;;;;;;;;5019401;28;20129;-75
2022/10/23 03:41:32;;;;;;;15.27;11.90;;;;;;;;;;5021949;28;20037;-74
2022/10/23 03:43:58;;;;;;;15.75;11.73;;;;;;;;;;5022109;28;20489;-75
2022/10/23 03:46:24;;;;;;;16.13;12.15;;;;;;;;;;5019721;28;20478;-75
2022/10/23 03:48:50;;;;;;;20.30;12.07;;;;;;;;;;5022730;28;20045;-75
2022/10/23 03:51:16;;;;;;;16.90;11.98;;;;;;;;;;5021111;28;20474;-74
2022/10/23 03:53:42;;;;;;;15.55;11.93;;;;;;;;;;5020819;28;20048;-74
2022/10/23 03:56:08;;;;;;;16.65;13.27;;;;;;;;;;5020025;28;20037;-74
2022/10/23 03:58:34;;;;;;;16.73;13.50;;;;;;;;;;5023195;28;20404;-75
2022/10/23 04:01:00;;;;;;;15.25;12.65;;;;;;;;;;5024191;28;20116;-75
2022/10/23 04:03:26;;;;;;;16.88;12.88;;;;;;;;;;5007335;28;20057;-75
2022/10/23 04:05:52;;;;;;;16.25;12.93;;;;;;;;;;5021055;28;20122;-74
2022/10/23 04:08:18;;;;;;;16.50;12.45;;;;;;;;;;5020292;28;20108;-74
2022/10/23 04:10:44;;;;;;;16.05;12.52;;;;;;;;;;5018368;28;20084;-75
2022/10/23 04:13:10;;;;;;;16.92;12.13;;;;;;;;;;5021567;28;20136;-74
2022/10/23 04:15:36;;;;;;;17.58;13.07;;;;;;;;;;5021558;28;20569;-75
2022/10/23 04:18:02;;;;;;;16.63;13.25;;;;;;;;;;5021582;28;20332;-74
2022/10/23 04:20:28;;;;;;;15.45;13.00;;;;;;;;;;5024502;28;20489;-75
2022/10/23 04:22:54;;;;;;;15.57;13.38;;;;;;;;;;5023609;28;20049;-75
2022/10/23 04:25:20;;;;;;;17.73;13.02;;;;;;;;;;5021437;28;20104;-74
2022/10/23 04:27:46;;;;;;;16.42;13.52;;;;;;;;;;5020981;28;20545;-74
2022/10/23 04:30:12;;;;;;;15.23;13.55;;;;;;;;;;5017594;28;20050;-74
2022/10/23 04:32:38;;;;;;;17.13;13.40;;;;;;;;;;5016234;28;20053;-75
2022/10/23 04:35:05;;;;;;;15.23;13.38;;;;;;;;;;5016530;28;20386;-74
2022/10/23 04:37:31;;;;;;;16.90;14.10;;;;;;;;;;5018130;28;20054;-75
2022/10/23 04:39:57;;;;;;;18.70;14.60;;;;;;;;;;5016670;28;20069;-74
2022/10/23 04:42:23;;;;;;;15.50;13.88;;;;;;;;;;5021512;28;20049;-74
2022/10/23 04:44:49;;;;;;;15.65;13.93;;;;;;;;;;5021680;28;20120;-75
2022/10/23 04:47:15;;;;;;;18.42;14.38;;;;;;;;;;5018128;28;20051;-74
2022/10/23 04:49:41;;;;;;;16.75;14.85;;;;;;;;;;5022813;28;20052;-74
2022/10/23 04:52:07;;;;;;;21.40;14.90;;;;;;;;;;5020802;28;20034;-74
2022/10/23 04:54:37;;;;;;;19.42;15.23;;;;;;;;;;5012267;28;20465;-75
2022/10/23 04:57:03;;;;;;;18.90;14.10;;;;;;;;;;5018706;28;20042;-74
2022/10/23 04:59:29;;;;;;;17.38;14.80;;;;;;;;;;5023219;28;20061;-75
2022/10/23 05:01:55;;;;;;;18.17;14.30;;;;;;;;;;5019811;28;20053;-75
2022/10/23 05:04:21;;;;;;;17.70;14.20;;;;;;;;;;5021900;28;20045;-74
2022/10/23 05:06:47;;;;;;;16.95;14.40;;;;;;;;;;5022932;28;20045;-74
2022/10/23 05:09:13;;;;;;;16.75;13.85;;;;;;;;;;5018831;28;20061;-75
2022/10/23 05:11:39;;;;;;;16.55;13.93;;;;;;;;;;5025475;28;20049;-74
2022/10/23 05:14:05;;;;;;;15.98;14.35;;;;;;;;;;5020975;28;20405;-74
2022/10/23 05:16:37;;;;;;;17.70;15.25;;;;;;;;;;5022168;28;20099;-75
2022/10/23 05:19:04;;;;;;;18.90;14.57;;;;;;;;;;5023416;28;20200;-75
2022/10/23 05:21:40;;;;;;;17.35;14.60;;;;;;;;;;5016646;28;20183;-75
2022/10/23 05:24:06;;;;;;;15.30;13.65;;;;;;;;;;5017582;28;20050;-74
2022/10/23 05:26:32;;;;;;;19.58;14.05;;;;;;;;;;5020535;28;20489;-75
2022/10/23 05:28:58;;;;;;;16.95;14.38;;;;;;;;;;5023109;28;20049;-74
2022/10/23 05:31:24;;;;;;;18.58;13.98;;;;;;;;;;5020457;28;20511;-74
2022/10/23 05:33:52;;;;;;;18.58;14.20;;;;;;;;;;5023077;28;20080;-74
2022/10/23 05:36:18;;;;;;;20.45;14.80;;;;;;;;;;5019800;28;21260;-74
2022/10/23 05:38:44;;;;;;;19.52;14.65;;;;;;;;;;5018589;28;20099;-74
2022/10/23 05:41:10;;;;;;;17.08;14.27;;;;;;;;;;5021287;28;20123;-74
2022/10/23 05:43:36;;;;;;;15.65;14.02;;;;;;;;;;5016137;28;20053;-75
2022/10/23 05:46:06;;;;;;;20.85;14.70;;;;;;;;;;5019869;28;20037;-75
2022/10/23 05:48:32;;;;;;;18.70;15.35;;;;;;;;;;5021822;28;20046;-75
2022/10/23 05:51:05;;;;;;;17.55;14.65;;;;;;;;;;5020271;28;20048;-75
2022/10/23 05:53:31;;;;;;;18.33;14.38;;;;;;;;;;5022438;28;20056;-74
2022/10/23 05:56:03;;;;;;;16.80;13.95;;;;;;;;;;5018952;28;20045;-75
2022/10/23 05:58:29;;;;;;;18.90;14.68;;;;;;;;;;5021055;28;20092;-75
2022/10/23 06:00:55;;;;;;;21.40;15.23;;;;;;;;;;5019466;28;20124;-75
2022/10/23 06:03:21;;;;;;;16.25;13.82;;;;;;;;;;5016330;28;20631;-75
2022/10/23 06:05:51;;;;;;;15.90;13.88;;;;;;;;;;5019840;28;20088;-74
2022/10/23 06:08:17;;;;;;;16.65;13.45;;;;;;;;;;5018134;28;20564;-74
2022/10/23 06:10:43;;;;;;;23.13;15.02;;;;;;;;;;5015785;28;20124;-74
2022/10/23 06:13:12;;;;;;;18.35;14.77;;;;;;;;;;5019373;28;20050;-75
2022/10/23 06:15:38;;;;;;;18.55;13.88;;;;;;;;;;5020872;28;20796;-74
2022/10/23 06:18:04;;;;;;;20.50;14.15;;;;;;;;;;5020293;28;20103;-75
2022/10/23 06:20:30;;;;;;;18.45;14.70;;;;;;;;;;5017927;28;20053;-74
2022/10/23 06:22:56;;;;;;;18.83;13.88;;;;;;;;;;5017452;28;20046;-74
2022/10/23 06:25:22;;;;;;;19.10;14.73;;;;;;;;;;5020458;28;20375;-74
2022/10/23 06:27:50;;;;;;;16.27;14.52;;;;;;;;;;5016507;28;20474;-74
2022/10/23 06:30:19;;;;;;;20.48;14.55;;;;;;;;;;5019063;28;20038;-75
2022/10/23 06:32:45;;;;;;;15.40;13.55;;;;;;;;;;5017299;28;20128;-74
2022/10/23 06:35:11;;;;;;;19.73;15.25;;;;;;;;;;5015914;28;20183;-74
2022/10/23 06:37:40;;;;;;;18.50;14.30;;;;;;;;;;5018553;28;20049;-74
2022/10/23 06:40:07;;;;;;;19.33;14.75;;;;;;;;;;5017645;28;20063;-75
2022/10/23 06:42:33;;;;;;;19.08;14.68;;;;;;;;;;5021233;28;20048;-74
2022/10/23 06:44:59;;;;;;;17.52;14.98;;;;;;;;;;5019485;28;20045;-75
2022/10/23 06:47:25;;;;;;;18.83;14.85;;;;;;;;;;5017206;28;22343;-75
2022/10/23 06:49:51;;;;;;;21.75;15.88;;;;;;;;;;5024476;28;20073;-75
2022/10/23 06:52:17;;;;;;;21.42;16.15;;;;;;;;;;5016754;28;20157;-74
2022/10/23 06:54:43;;;;;;;17.63;15.00;;;;;;;;;;5014196;28;20168;-74
2022/10/23 06:57:09;;;;;;;22.25;15.63;;;;;;;;;;5015402;28;20508;-74
2022/10/23 06:59:35;;;;;;;18.17;15.32;;;;;;;;;;5021619;28;20132;-75
2022/10/23 07:02:01;;;;;;;17.95;15.65;;;;;;;;;;5016071;28;20081;-75
2022/10/23 07:04:27;;;;;;;18.00;15.52;;;;;;;;;;5019062;28;20080;-75
2022/10/23 07:06:59;;;;;;;20.35;17.17;;;;;;;;;;5016563;28;20112;-75
2022/10/23 07:09:25;;;;;;;22.33;15.73;;;;;;;;;;5018303;28;20164;-74
2022/10/23 07:11:51;;;;;;;24.70;16.58;;;;;;;;;;5017717;28;20038;-75
2022/10/23 07:14:17;;;;;;;19.08;15.88;;;;;;;;;;5013406;28;20045;-75
2022/10/23 07:16:46;;;;;;;19.60;16.73;;;;;;;;;;5017749;28;20049;-74
2022/10/23 07:19:12;;;;;;;24.90;16.08;;;;;;;;;;5014035;28;20065;-74
2022/10/23 07:21:38;;;;;;;19.83;15.82;;;;;;;;;;5021330;28;20040;-75
2022/10/23 07:24:07;;;;;;;23.33;16.48;;;;;;;;;;5016850;28;22106;-75
2022/10/23 07:26:33;;;;;;;20.48;16.40;;;;;;;;;;5021265;28;20083;-74
2022/10/23 07:28:59;;;;;;;18.05;16.02;;;;;;;;;;5018912;28;20073;-75
2022/10/23 07:31:28;;;;;;;18.35;15.48;;;;;;;;;;5019346;28;20665;-75
2022/10/23 07:33:54;;;;;;;18.90;15.88;;;;;;;;;;5022712;28;20511;-75
2022/10/23 07:36:20;;;;;;;22.75;15.95;;;;;;;;;;5009469;28;20512;-74
2022/10/23 07:38:46;;;;;;;19.88;15.60;;;;;;;;;;5014595;28;20057;-75
2022/10/23 07:41:13;;;;;;;18.33;15.57;;;;;;;;;;5021099;28;20456;-75
2022/10/23 07:43:39;;;;;;;19.02;15.75;;;;;;;;;;5012666;28;20107;-75
2022/10/23 07:46:07;;;;;;;19.42;15.93;;;;;;;;;;5019102;28;20104;-75
2022/10/23 07:48:36;;;;;;;19.95;15.88;;;;;;;;;;5020285;28;20048;-75
2022/10/23 07:51:07;;;;;;;19.73;15.35;;;;;;;;;;5017760;28;20144;-75
2022/10/23 07:53:34;;;;;;;20.27;16.85;;;;;;;;;;5018846;28;20056;-75
2022/10/23 07:56:02;;;;;;;21.80;15.13;;;;;;;;;;5020703;28;20044;-75
2022/10/23 07:58:28;;;;;;;21.85;15.48;;;;;;;;;;5016892;28;20687;-75
2022/10/23 08:00:57;;;;;;;19.90;15.43;;;;;;;;;;5016430;28;20221;-75
2022/10/23 08:03:26;;;;;;;17.55;15.35;;;;;;;;;;5014977;28;20046;-75
2022/10/23 08:05:56;;;;;;;21.70;16.33;;;;;;;;;;5017677;28;20590;-75
2022/10/23 08:08:23;;;;;;;20.60;15.13;;;;;;;;;;5015497;28;20054;-75
2022/10/23 08:10:50;;;;;;;26.05;16.98;;;;;;;;;;5020999;28;20037;-75
2022/10/23 08:13:19;;;;;;;17.45;14.82;;;;;;;;;;5014929;28;20792;-75
2022/10/23 08:15:46;;;;;;;19.92;16.20;;;;;;;;;;5023335;28;20049;-75
2022/10/23 08:18:12;;;;;;;18.50;15.55;;;;;;;;;;5020753;28;20485;-74
2022/10/23 08:20:42;;;;;;;19.85;15.50;;;;;;;;;;5019090;28;20796;-75
2022/10/23 08:23:08;;;;;;;21.67;15.40;;;;;;;;;;5018997;28;20256;-75
2022/10/23 08:25:41;;;;;;;17.85;15.50;;;;;;;;;;5016604;28;20033;-75
2022/10/23 08:28:08;;;;;;;20.00;15.13;;;;;;;;;;5026239;28;20184;-75
2022/10/23 08:30:37;;;;;;;20.10;14.65;;;;;;;;;;5019419;28;20072;-75
2022/10/23 08:33:04;;;;;;;17.73;14.48;;;;;;;;;;5020428;28;20052;-75
2022/10/23 08:35:30;;;;;;;17.13;13.45;;;;;;;;;;5021506;28;20132;-75
2022/10/23 08:37:56;;;;;;;20.30;14.52;;;;;;;;;;5020282;28;20197;-74
2022/10/23 08:40:25;;;;;;;16.35;14.48;;;;;;;;;;5028235;28;20093;-75
2022/10/23 08:43:14;;;;;;;18.52;14.02;;;;;;;;;;5027043;28;20053;-75
2022/10/23 08:45:44;;;;;;;16.48;13.95;;;;;;;;;;5014422;28;20081;-75
2022/10/23 08:48:27;;;;;;;18.85;14.15;;;;;;;;;;5017853;28;20083;-74
2022/10/23 08:50:55;;;;;;;18.52;14.70;;;;;;;;;;5016342;28;20054;-75
2022/10/23 08:53:24;;;;;;;16.75;13.50;;;;;;;;;;5019698;28;20037;-76
2022/10/23 08:56:06;;;;;;;18.83;14.65;;;;;;;;;;5018722;28;20054;-75
2022/10/23 08:58:35;;;;;;;16.83;13.80;;;;;;;;;;5023966;28;20068;-76
2022/10/23 09:01:02;;;;;;;18.80;13.35;;;;;;;;;;5019340;28;20053;-76
2022/10/23 09:03:28;;;;;;;20.38;14.38;;;;;;;;;;5020142;28;20180;-75
2022/10/23 09:05:59;;;;;;;17.27;13.35;;;;;;;;;;5024817;28;20049;-75
2022/10/23 09:08:28;;;;;;;17.80;13.38;;;;;;;;;;5019477;28;20383;-76
2022/10/23 09:11:00;;;;;;;17.25;13.32;;;;;;;;;;5022157;28;20096;-76
2022/10/23 09:13:26;;;;;;;16.63;13.10;;;;;;;;;;5020825;28;20155;-75
2022/10/23 09:16:15;;;;;;;18.83;14.68;;;;;;;;;;5017851;28;20456;-75
2022/10/23 09:18:41;;;;;;;18.08;13.18;;;;;;;;;;5014759;28;20061;-75
2022/10/23 09:21:11;;;;;;;17.77;13.20;;;;;;;;;;5023860;28;20046;-75
2022/10/23 09:23:37;;;;;;;17.75;13.50;;;;;;;;;;5026694;28;20040;-75
2022/10/23 09:26:12;;;;;;;17.83;14.05;;;;;;;;;;5029992;28;20095;-75
2022/10/23 09:28:43;;;;;;;17.65;12.60;;;;;;;;;;5024894;28;20049;-76
2022/10/23 09:31:10;;;;;;;16.38;12.68;;;;;;;;;;5029507;28;20440;-75
2022/10/23 09:33:37;;;;;;;16.23;13.35;;;;;;;;;;5027370;28;20045;-75
2022/10/23 09:36:07;;;;;;;16.55;13.02;;;;;;;;;;5027481;28;20056;-75
2022/10/23 09:38:37;;;;;;;13.73;12.15;;;;;;;;;;5026072;28;20073;-75
2022/10/23 09:41:12;;;;;;;16.05;12.18;;;;;;;;;;5026271;28;20100;-76
2022/10/23 09:43:38;;;;;;;16.55;12.95;;;;;;;;;;5026437;28;20442;-75
2022/10/23 09:46:06;;;;;;;17.27;12.55;;;;;;;;;;5026994;28;20125;-75
2022/10/23 09:48:32;;;;;;;16.70;12.38;;;;;;;;;;5028020;28;20037;-75
2022/10/23 09:51:00;;;;;;;18.10;11.90;;;;;;;;;;5017180;28;20189;-75
2022/10/23 09:53:34;;;;;;;15.57;11.88;;;;;;;;;;5025317;28;20536;-75
2022/10/23 09:56:21;;;;;;;17.10;11.95;;;;;;;;;;5026974;28;20094;-75
2022/10/23 09:59:01;;;;;;;15.15;11.35;;;;;;;;;;5019218;28;20053;-75
2022/10/23 10:01:29;;;;;;;14.25;11.60;;;;;;;;;;5024088;28;20052;-75
2022/10/23 10:03:56;;;;;;;19.13;11.82;;;;;;;;;;5026802;28;20056;-75
2022/10/23 10:06:31;;;;;;;14.05;11.68;;;;;;;;;;5027713;28;20422;-76
2022/10/23 10:09:00;;;;;;;16.67;11.25;;;;;;;;;;5023774;28;20052;-75
2022/10/23 10:11:26;;;;;;;17.00;12.10;;;;;;;;;;5025017;28;20053;-75
2022/10/23 10:14:05;;;;;;;17.17;11.20;;;;;;;;;;5021940;28;20053;-75
2022/10/23 10:16:31;;;;;;;16.25;11.95;;;;;;;;;;5027621;28;20049;-75
2022/10/23 10:19:20;;;;;;;15.40;11.35;;;;;;;;;;5023673;28;20045;-75
2022/10/23 10:21:56;;;;;;;15.75;11.13;;;;;;;;;;5013083;28;20053;-74
2022/10/23 10:24:34;;;;;;;16.50;10.10;;;;;;;;;;5026666;28;20038;-75
2022/10/23 10:27:19;;;;;;;14.50;11.55;;;;;;;;;;5021003;28;20048;-75
2022/10/23 10:29:51;;;;;;;16.35;10.70;;;;;;;;;;5025711;28;20041;-75
2022/10/23 10:32:30;;;;;;;16.25;10.70;;;;;;;;;;5020539;28;20038;-75
2022/10/23 10:35:02;;;;;;;14.52;10.00;;;;;;;;;;5023450;28;20132;-75
2022/10/23 10:37:37;;;;;;;15.60;10.63;;;;;;;;;;5020233;28;20160;-75
2022/10/23 10:40:03;;;;;;;12.77;9.80;;;;;;;;;;5014285;28;20460;-75
2022/10/23 10:42:39;;;;;;;13.88;9.77;;;;;;;;;;5014883;28;20054;-75
2022/10/23 10:45:19;;;;;;;17.25;9.77;;;;;;;;;;5024703;28;20128;-75
2022/10/23 10:48:03;;;;;;;11.95;9.13;;;;;;;;;;5024108;28;20120;-75
2022/10/23 10:50:43;;;;;;;11.80;9.35;;;;;;;;;;5028078;28;20042;-75
2022/10/23 10:53:33;;;;;;;13.40;9.75;;;;;;;;;;5020008;28;20436;-75
2022/10/23 10:56:01;;;;;;;12.13;9.88;;;;;;;;;;5026035;28;20261;-75
2022/10/23 10:58:36;;;;;;;13.05;9.63;;;;;;;;;;5019033;28;20041;-75
2022/10/23 11:01:05;;;;;;;11.75;8.60;;;;;;;;;;5022761;28;20053;-75
2022/10/23 11:03:38;;;;;;;12.25;8.60;;;;;;;;;;5026402;28;20440;-75
2022/10/23 11:06:19;;;;;;;9.73;8.68;;;;;;;;;;5019328;28;20049;-75
2022/10/23 11:08:45;;;;;;;10.43;9.30;;;;;;;;;;5026553;28;20041;-75
2022/10/23 11:11:15;;;;;;;10.50;9.07;;;;;;;;;;5025907;28;20044;-75
2022/10/23 11:13:42;;;;;;;13.63;9.02;;;;;;;;;;5026031;28;20048;-75
2022/10/23 11:16:29;;;;;;;11.05;9.05;;;;;;;;;;5019083;28;20056;-75
2022/10/23 11:19:22;;;;;;;12.50;8.65;;;;;;;;;;5023865;28;20049;-75
2022/10/23 11:21:51;;;;;;;11.07;9.13;;;;;;;;;;5021291;28;20072;-75
2022/10/23 11:24:27;;;;;;;12.55;8.20;;;;;;;;;;5024598;28;20571;-75
2022/10/23 11:27:10;;;;;;;11.00;8.32;;;;;;;;;;5028322;28;20120;-76
2022/10/23 11:29:56;;;;;;;11.57;8.52;;;;;;;;;;5026614;28;20056;-75
2022/10/23 11:32:37;;;;;;;10.85;8.27;;;;;;;;;;5019242;28;20057;-75
2022/10/23 11:35:22;;;;;;;10.57;8.43;;;;;;;;;;5024466;28;20124;-75
2022/10/23 11:38:07;;;;;;;11.27;8.13;;;;;;;;;;5021664;28;20065;-75
2022/10/23 11:40:36;;;;;;;13.20;8.13;;;;;;;;;;5021619;28;21671;-76
2022/10/23 11:43:02;;;;;;;10.10;8.48;;;;;;;;;;5026905;28;20068;-74
2022/10/23 11:45:36;;;;;;;17.83;9.63;;;;;;;;;;5021816;28;20486;-75
2022/10/23 11:48:14;;;;;;;11.27;8.15;;;;;;;;;;5022918;28;20052;-75
2022/10/23 11:50:43;;;;;;;10.32;8.15;;;;;;;;;;5024343;28;20543;-74
2022/10/23 11:53:28;;;;;;;12.10;8.40;;;;;;;;;;5018915;28;20110;-74
2022/10/23 11:56:22;;;;;;;10.32;8.25;;;;;;;;;;5019783;28;20045;-74
2022/10/23 11:58:49;;;;;;;10.70;8.20;;;;;;;;;;5018470;28;20046;-75
2022/10/23 12:01:41;;;;;;;12.30;7.72;;;;;;;;;;5029701;28;20456;-75
2022/10/23 12:04:13;;;;;;;12.10;8.38;;;;;;;;;;5030453;28;20056;-75
2022/10/23 12:06:47;;;;;;;9.43;7.43;;;;;;;;;;5028868;28;20049;-75
2022/10/23 12:09:31;;;;;;;10.45;8.13;;;;;;;;;;5028030;28;20049;-75
2022/10/23 12:12:02;;;;;;;9.77;7.57;;;;;;;;;;5020287;28;20052;-76
2022/10/23 12:14:30;;;;;;;9.93;7.53;;;;;;;;;;5024525;28;20108;-75
2022/10/23 12:16:56;;;;;;;10.18;7.93;;;;;;;;;;5024613;28;20426;-75
2022/10/23 12:19:23;;;;;;;10.70;9.00;;;;;;;;;;5029182;28;20063;-74
2022/10/23 12:21:50;;;;;;;9.02;7.50;;;;;;;;;;5023617;28;20517;-75
2022/10/23 12:24:38;;;;;;;10.52;7.60;;;;;;;;;;5029499;28;20050;-75
2022/10/23 12:27:17;;;;;;;8.00;6.90;;;;;;;;;;5025556;28;20045;-74
2022/10/23 12:29:59;;;;;;;10.70;7.03;;;;;;;;;;5028279;28;20464;-74
2022/10/23 12:32:37;;;;;;;10.00;6.93;;;;;;;;;;5024075;28;20049;-75
2022/10/23 12:35:16;;;;;;;10.45;7.07;;;;;;;;;;5023705;28;20049;-75
2022/10/23 12:38:00;;;;;;;8.35;6.63;;;;;;;;;;5030988;28;20531;-74
2022/10/23 12:40:28;;;;;;;9.55;7.40;;;;;;;;;;5024660;28;20174;-74
2022/10/23 12:42:56;;;;;;;9.73;6.75;;;;;;;;;;5031945;28;20053;-73
2022/10/23 12:45:23;;;;;;;8.93;6.88;;;;;;;;;;5027140;28;20582;-74
2022/10/23 12:47:50;;;;;;;9.75;6.85;;;;;;;;;;5027396;28;20037;-75
2022/10/23 12:50:17;;;;;;;7.85;6.45;;;;;;;;;;5021035;28;20045;-74
2022/10/23 12:52:50;;;;;;;8.27;6.13;;;;;;;;;;5025961;28;20115;-75
2022/10/23 12:55:19;;;;;;;8.75;6.32;;;;;;;;;;5026892;28;20076;-76
2022/10/23 12:57:46;;;;;;;9.48;6.60;;;;;;;;;;5028490;28;20187;-76
2022/10/23 13:00:17;;;;;;;9.40;6.20;;;;;;;;;;5024181;28;20045;-76
2022/10/23 13:02:43;;;;;;;7.00;6.30;;;;;;;;;;5029502;28;20389;-76
2022/10/23 13:05:12;;;;;;;10.48;6.55;;;;;;;;;;5019897;28;20143;-75
2022/10/23 13:07:42;;;;;;;8.25;6.00;;;;;;;;;;5026909;28;20063;-76
2022/10/23 13:10:13;;;;;;;7.75;5.85;;;;;;;;;;5030319;28;20056;-75
2022/10/23 13:12:39;;;;;;;11.88;6.30;;;;;;;;;;5028742;28;20053;-75
2022/10/23 13:15:05;;;;;;;11.05;6.00;;;;;;;;;;5022217;28;20041;-75
2022/10/23 13:17:59;;;;;;;8.27;5.53;;;;;;;;;;5027580;28;20041;-75
2022/10/23 13:20:29;;;;;;;7.95;5.78;;;;;;;;;;5028771;28;20083;-75
2022/10/23 13:22:57;;;;;;;8.52;5.47;;;;;;;;;;5021431;28;20077;-74
2022/10/23 13:25:25;;;;;;;8.63;5.10;;;;;;;;;;5027734;28;20485;-75
2022/10/23 13:28:01;;;;;;;8.23;5.88;;;;;;;;;;5028026;28;20054;-75
2022/10/23 13:30:29;;;;;;;7.55;5.55;;;;;;;;;;5028229;28;20073;-75
2022/10/23 13:32:55;;;;;;;7.53;5.30;;;;;;;;;;5028946;28;20100;-75
2022/10/23 13:35:22;;;;;;;6.90;5.80;;;;;;;;;;5024319;28;20456;-75
2022/10/23 13:37:49;;;;;;;8.57;5.32;;;;;;;;;;5029716;28;20144;-75
2022/10/23 13:40:26;;;;;;;9.68;6.03;;;;;;;;;;5028265;28;20047;-75
2022/10/23 13:42:53;;;;;;;8.48;5.95;;;;;;;;;;5023762;28;20037;-75
2022/10/23 13:45:21;;;;;;;9.70;7.30;;;;;;;;;;5016190;28;20140;-75
2022/10/23 13:47:47;;;;;;;7.35;5.10;;;;;;;;;;5025615;28;20044;-75
2022/10/23 13:50:13;;;;;;;8.60;6.68;;;;;;;;;;5023993;28;20144;-75
2022/10/23 13:52:39;;;;;;;7.60;5.55;;;;;;;;;;5025088;28;20038;-76
2022/10/23 13:55:25;;;;;;;8.45;5.25;;;;;;;;;;5025471;28;20056;-76
2022/10/23 13:57:51;;;;;;;8.43;5.90;;;;;;;;;;5023069;28;20053;-76
2022/10/23 14:00:18;;;;;;;7.72;5.45;;;;;;;;;;5025281;28;20117;-76
2022/10/23 14:02:44;;;;;;;7.03;6.25;;;;;;;;;;5025148;28;20060;-76
2022/10/23 14:05:11;;;;;;;7.22;5.40;;;;;;;;;;5023667;28;20050;-76
2022/10/23 14:07:37;;;;;;;7.72;6.00;;;;;;;;;;5027550;28;20041;-76
2022/10/23 14:10:04;;;;;;;7.95;5.65;;;;;;;;;;5028208;28;20049;-76
2022/10/23 14:12:30;;;;;;;8.18;6.63;;;;;;;;;;5028076;28;20041;-76
2022/10/23 14:14:56;;;;;;;6.70;5.22;;;;;;;;;;5025490;28;20480;-76
2022/10/23 14:17:22;;;;;;;7.50;5.15;;;;;;;;;;5021787;28;20394;-76
2022/10/23 14:19:49;;;;;;;7.78;5.43;;;;;;;;;;5025059;28;20440;-75
2022/10/23 14:22:15;;;;;;;8.77;6.82;;;;;;;;;;5030379;28;20081;-75
2022/10/23 14:24:41;;;;;;;8.00;5.22;;;;;;;;;;5025147;28;20072;-75
2022/10/23 14:27:07;;;;;;;9.00;5.20;;;;;;;;;;5029880;28;20080;-75
2022/10/23 14:29:33;;;;;;;6.97;5.22;;;;;;;;;;5026682;28;20455;-76
2022/10/23 14:31:59;;;;;;;8.52;5.53;;;;;;;;;;5025925;28;20114;-76
2022/10/23 14:34:25;;;;;;;7.80;5.90;;;;;;;;;;5029598;28;20045;-75
2022/10/23 14:36:51;;;;;;;9.40;5.55;;;;;;;;;;5025934;28;20049;-75
2022/10/23 14:39:17;;;;;;;6.97;5.50;;;;;;;;;;5022789;28;20045;-75
2022/10/23 14:41:43;;;;;;;8.45;6.20;;;;;;;;;;5026848;28;20131;-75